RYR57HE EGPH-LFBE
Flight info
| Callsign | RYR57HE |
|---|---|
| Flight time | N/A |
| Altitude | 33000 |
| Route | GOSAM P600 FENIK L612 NAVSO DCT AKOMU DCT VAMEB UL612 HON DCT SITET UN859 SOPIL DCT BALAN DCT LMG A34 BUGUS |
| Aircraft | B738/M-SDE3FGILRWY/SB1 |
Departure
| Time | 2026-04-26 09:11 |
|---|---|
| Airport | Edinburgh Airport (EGPH) |
Arrival
| Time | N/A |
|---|---|
| Airport | Bergerac Dordogne-Périgord airport (LFBE) |
| Time | Latitude | Longitude | Altitude | Speed | Heading |
|---|---|---|---|---|---|
| 2026-04-26 08:28 | 55.95021 | -3.36065 | 142 ft | 0 kts | 249° |
| 2026-04-26 09:03 | 55.95021 | -3.36064 | 142 ft | 1 kts | 249° |
| 2026-04-26 09:03 | 55.95027 | -3.36040 | 141 ft | 2 kts | 249° |
| 2026-04-26 09:04 | 55.95032 | -3.36015 | 141 ft | 2 kts | 249° |
| 2026-04-26 09:04 | 55.95036 | -3.35999 | 141 ft | 2 kts | 249° |
| 2026-04-26 09:04 | 55.95044 | -3.35977 | 141 ft | 2 kts | 216° |
| 2026-04-26 09:04 | 55.95058 | -3.35966 | 142 ft | 2 kts | 189° |
| 2026-04-26 09:05 | 55.95073 | -3.35967 | 142 ft | 2 kts | 162° |
| 2026-04-26 09:05 | 55.95086 | -3.35980 | 142 ft | 2 kts | 134° |
| 2026-04-26 09:05 | 55.95092 | -3.35996 | 142 ft | 0 kts | 115° |
| 2026-04-26 09:05 | 55.95095 | -3.36008 | 142 ft | 0 kts | 111° |
| 2026-04-26 09:08 | 55.95079 | -3.35948 | 141 ft | 10 kts | 118° |
| 2026-04-26 09:08 | 55.95052 | -3.35816 | 141 ft | 12 kts | 71° |
| 2026-04-26 09:08 | 55.95116 | -3.35860 | 142 ft | 14 kts | 298° |
| 2026-04-26 09:08 | 55.95198 | -3.35979 | 142 ft | 17 kts | 336° |
| 2026-04-26 09:09 | 55.95276 | -3.35858 | 142 ft | 17 kts | 58° |
| 2026-04-26 09:09 | 55.95345 | -3.35656 | 142 ft | 20 kts | 59° |
| 2026-04-26 09:09 | 55.95422 | -3.35435 | 142 ft | 15 kts | 49° |
| 2026-04-26 09:09 | 55.95492 | -3.35436 | 142 ft | 5 kts | 331° |
| 2026-04-26 09:10 | 55.95528 | -3.35474 | 142 ft | 7 kts | 330° |
| 2026-04-26 09:10 | 55.95571 | -3.35540 | 142 ft | 9 kts | 273° |
| 2026-04-26 09:10 | 55.95531 | -3.35678 | 142 ft | 25 kts | 238° |
| 2026-04-26 09:10 | 55.95316 | -3.36312 | 142 ft | 98 kts | 240° |
| 2026-04-26 09:11 | 55.94836 | -3.37711 | 145 ft | 161 kts | 239° |
| 2026-04-26 09:11 | 55.94233 | -3.39544 | 714 ft | 176 kts | 241° |
| 2026-04-26 09:11 | 55.93698 | -3.41273 | 1869 ft | 152 kts | 241° |
| 2026-04-26 09:11 | 55.93176 | -3.42948 | 2321 ft | 167 kts | 238° |
| 2026-04-26 09:12 | 55.92552 | -3.44742 | 2906 ft | 175 kts | 238° |
| 2026-04-26 09:12 | 55.91893 | -3.46652 | 3462 ft | 186 kts | 238° |
| 2026-04-26 09:12 | 55.91202 | -3.48680 | 3951 ft | 200 kts | 238° |
| 2026-04-26 09:12 | 55.90517 | -3.50960 | 4410 ft | 220 kts | 249° |
| 2026-04-26 09:13 | 55.90146 | -3.53706 | 4996 ft | 236 kts | 261° |
| 2026-04-26 09:13 | 55.89907 | -3.56630 | 5644 ft | 248 kts | 261° |
| 2026-04-26 09:13 | 55.89641 | -3.59740 | 6241 ft | 261 kts | 261° |
| 2026-04-26 09:13 | 55.89343 | -3.62931 | 7078 ft | 265 kts | 260° |
| 2026-04-26 09:14 | 55.89025 | -3.66140 | 7959 ft | 267 kts | 258° |
| 2026-04-26 09:14 | 55.88692 | -3.69404 | 8825 ft | 269 kts | 258° |
| 2026-04-26 09:14 | 55.88355 | -3.72671 | 9676 ft | 272 kts | 258° |
| 2026-04-26 09:14 | 55.88012 | -3.75966 | 10531 ft | 274 kts | 258° |
| 2026-04-26 09:15 | 55.87666 | -3.79282 | 11304 ft | 277 kts | 258° |
| 2026-04-26 09:15 | 55.87316 | -3.82656 | 12068 ft | 280 kts | 258° |
| 2026-04-26 09:15 | 55.86968 | -3.86063 | 12827 ft | 283 kts | 258° |
| 2026-04-26 09:15 | 55.86617 | -3.89531 | 13566 ft | 286 kts | 258° |
| 2026-04-26 09:16 | 55.86267 | -3.92998 | 14281 ft | 290 kts | 259° |
| 2026-04-26 09:16 | 55.85907 | -3.96567 | 15005 ft | 293 kts | 259° |
| 2026-04-26 09:16 | 55.85549 | -4.00121 | 15730 ft | 295 kts | 259° |
| 2026-04-26 09:16 | 55.85187 | -4.03709 | 16382 ft | 299 kts | 259° |
| 2026-04-26 09:17 | 55.84815 | -4.07380 | 17080 ft | 302 kts | 259° |
| 2026-04-26 09:17 | 55.84364 | -4.11005 | 17680 ft | 306 kts | 251° |
| 2026-04-26 09:17 | 55.83326 | -4.14280 | 18319 ft | 309 kts | 231° |
| 2026-04-26 09:17 | 55.81691 | -4.16835 | 18953 ft | 314 kts | 217° |
| 2026-04-26 09:18 | 55.79875 | -4.18980 | 19553 ft | 318 kts | 216° |
| 2026-04-26 09:18 | 55.78021 | -4.21152 | 20184 ft | 320 kts | 216° |
| 2026-04-26 09:18 | 55.76054 | -4.23060 | 20743 ft | 327 kts | 206° |
| 2026-04-26 09:18 | 55.73875 | -4.24272 | 21372 ft | 331 kts | 195° |
| 2026-04-26 09:19 | 55.71600 | -4.24841 | 21883 ft | 338 kts | 187° |
| 2026-04-26 09:19 | 55.69224 | -4.24823 | 22401 ft | 345 kts | 178° |
| 2026-04-26 09:19 | 55.66828 | -4.23991 | 22929 ft | 353 kts | 167° |
| 2026-04-26 09:19 | 55.64558 | -4.22385 | 23447 ft | 359 kts | 159° |
| 2026-04-26 09:20 | 55.62331 | -4.20380 | 23907 ft | 364 kts | 156° |
| 2026-04-26 09:20 | 55.60098 | -4.18203 | 24431 ft | 367 kts | 155° |
| 2026-04-26 09:20 | 55.57863 | -4.15970 | 24890 ft | 371 kts | 155° |
| 2026-04-26 09:20 | 55.55618 | -4.13722 | 25406 ft | 372 kts | 155° |
| 2026-04-26 09:21 | 55.53359 | -4.11471 | 26003 ft | 371 kts | 155° |
| 2026-04-26 09:21 | 55.51141 | -4.09276 | 26605 ft | 369 kts | 155° |
| 2026-04-26 09:21 | 55.48890 | -4.07064 | 27170 ft | 368 kts | 156° |
| 2026-04-26 09:21 | 55.46655 | -4.04879 | 27716 ft | 367 kts | 156° |
| 2026-04-26 09:22 | 55.44433 | -4.02714 | 28250 ft | 366 kts | 156° |
| 2026-04-26 09:22 | 55.42200 | -4.00546 | 28755 ft | 365 kts | 156° |
| 2026-04-26 09:22 | 55.39978 | -3.98393 | 29201 ft | 366 kts | 156° |
| 2026-04-26 09:22 | 55.37764 | -3.96252 | 29702 ft | 364 kts | 157° |
| 2026-04-26 09:23 | 55.35571 | -3.94135 | 30131 ft | 364 kts | 157° |
| 2026-04-26 09:23 | 55.33353 | -3.91997 | 30571 ft | 363 kts | 157° |
| 2026-04-26 09:23 | 55.31125 | -3.89850 | 30975 ft | 362 kts | 157° |
| 2026-04-26 09:23 | 55.29538 | -3.88324 | 31250 ft | 361 kts | 157° |
| 2026-04-26 09:24 | 55.27312 | -3.86184 | 31617 ft | 361 kts | 157° |
| 2026-04-26 09:24 | 55.25107 | -3.84067 | 31969 ft | 360 kts | 157° |
| 2026-04-26 09:24 | 55.22896 | -3.81949 | 32279 ft | 360 kts | 157° |
| 2026-04-26 09:24 | 55.20679 | -3.79879 | 32613 ft | 358 kts | 159° |
| 2026-04-26 09:25 | 55.18473 | -3.77940 | 32914 ft | 357 kts | 160° |
| 2026-04-26 09:25 | 55.16236 | -3.76034 | 33141 ft | 359 kts | 160° |
| 2026-04-26 09:25 | 55.13963 | -3.74120 | 33227 ft | 364 kts | 160° |
| 2026-04-26 09:26 | 55.09307 | -3.70191 | 33252 ft | 378 kts | 160° |
| 2026-04-26 09:26 | 55.04472 | -3.66085 | 33247 ft | 393 kts | 159° |
| 2026-04-26 09:27 | 54.99490 | -3.61843 | 33240 ft | 407 kts | 159° |
| 2026-04-26 09:27 | 54.94300 | -3.57432 | 33238 ft | 421 kts | 159° |
| 2026-04-26 09:28 | 54.89009 | -3.52934 | 33247 ft | 424 kts | 159° |
| 2026-04-26 09:28 | 54.83712 | -3.48432 | 33258 ft | 422 kts | 159° |
| 2026-04-26 09:29 | 54.78408 | -3.43948 | 33261 ft | 423 kts | 159° |
| 2026-04-26 09:29 | 54.73140 | -3.39512 | 33263 ft | 423 kts | 159° |
| 2026-04-26 09:30 | 54.67850 | -3.35072 | 33264 ft | 423 kts | 159° |
| 2026-04-26 09:30 | 54.62526 | -3.30617 | 33257 ft | 422 kts | 159° |
| 2026-04-26 09:31 | 54.57209 | -3.26186 | 33254 ft | 424 kts | 159° |
| 2026-04-26 09:31 | 54.51928 | -3.21794 | 33252 ft | 424 kts | 159° |
| 2026-04-26 09:32 | 54.46619 | -3.17394 | 33250 ft | 423 kts | 159° |
| 2026-04-26 09:32 | 54.41285 | -3.12986 | 33255 ft | 425 kts | 159° |
| 2026-04-26 09:33 | 54.35970 | -3.08603 | 33254 ft | 424 kts | 159° |
| 2026-04-26 09:33 | 54.30638 | -3.04220 | 33262 ft | 425 kts | 159° |
| 2026-04-26 09:34 | 54.25336 | -2.99877 | 33267 ft | 426 kts | 159° |
| 2026-04-26 09:34 | 54.20010 | -2.95525 | 33266 ft | 426 kts | 159° |
| 2026-04-26 09:35 | 54.14634 | -2.91211 | 33274 ft | 425 kts | 161° |
| 2026-04-26 09:35 | 54.09235 | -2.87249 | 33273 ft | 425 kts | 162° |
| 2026-04-26 09:36 | 54.03803 | -2.83374 | 33277 ft | 424 kts | 162° |
| 2026-04-26 09:36 | 53.98356 | -2.79475 | 33276 ft | 422 kts | 161° |
| 2026-04-26 09:37 | 53.92962 | -2.75595 | 33277 ft | 423 kts | 161° |
| 2026-04-26 09:37 | 53.87556 | -2.71700 | 33274 ft | 422 kts | 161° |
| 2026-04-26 09:38 | 53.82110 | -2.67783 | 33274 ft | 424 kts | 161° |
| 2026-04-26 09:38 | 53.76634 | -2.63857 | 33276 ft | 424 kts | 161° |
| 2026-04-26 09:39 | 53.71229 | -2.59990 | 33268 ft | 422 kts | 161° |
| 2026-04-26 09:39 | 53.65799 | -2.56116 | 33269 ft | 423 kts | 161° |
| 2026-04-26 09:40 | 53.60352 | -2.52241 | 33276 ft | 423 kts | 161° |
| 2026-04-26 09:40 | 53.54942 | -2.48399 | 33277 ft | 421 kts | 161° |
| 2026-04-26 09:41 | 53.49507 | -2.44554 | 33282 ft | 422 kts | 161° |
| 2026-04-26 09:41 | 53.44081 | -2.40723 | 33283 ft | 422 kts | 161° |
| 2026-04-26 09:42 | 53.38669 | -2.36914 | 33283 ft | 422 kts | 161° |
| 2026-04-26 09:42 | 53.33219 | -2.33088 | 33286 ft | 422 kts | 162° |
| 2026-04-26 09:43 | 53.27813 | -2.29303 | 33282 ft | 420 kts | 162° |
| 2026-04-26 09:43 | 53.22456 | -2.25563 | 33281 ft | 419 kts | 162° |
| 2026-04-26 09:44 | 53.17066 | -2.21813 | 33278 ft | 420 kts | 162° |
| 2026-04-26 09:44 | 53.11638 | -2.18047 | 33276 ft | 420 kts | 162° |